createdAt,value
2017-07-30T05:31:52.182Z,70
2017-07-30T05:32:17.650Z,70
2017-07-30T05:32:43.091Z,65
2017-07-30T05:33:08.614Z,65
2017-07-30T05:34:21.867Z,65
2017-07-30T05:34:47.338Z,65
2017-07-30T05:35:12.829Z,60
2017-07-30T05:35:38.329Z,55
2017-07-30T05:36:03.825Z,60
2017-07-30T05:36:29.253Z,60
2017-07-30T05:36:54.755Z,65
2017-07-30T05:37:20.207Z,65
2017-07-30T05:37:45.654Z,65
2017-07-30T05:38:11.161Z,65
2017-07-30T05:38:36.640Z,70
2017-07-30T05:39:02.106Z,70
2017-07-30T05:39:27.607Z,65
2017-07-30T05:39:53.111Z,60
2017-07-30T05:40:18.665Z,60
2017-07-30T05:40:44.205Z,65
2017-07-30T05:41:09.644Z,70
2017-07-30T05:41:35.196Z,70
2017-07-30T05:42:00.864Z,75
2017-07-30T05:42:26.286Z,75
2017-07-30T05:42:51.786Z,75
2017-07-30T05:43:17.420Z,75
2017-07-30T05:43:43.101Z,80
2017-07-30T05:44:08.611Z,80
2017-07-30T05:44:34.084Z,75
2017-07-30T05:44:59.573Z,70
2017-07-30T05:45:25.071Z,65
2017-07-30T05:45:50.545Z,60
2017-07-30T05:46:16.004Z,65
2017-07-30T05:46:41.444Z,70
2017-07-30T05:47:06.954Z,80
2017-07-30T05:47:32.412Z,90
2017-07-30T05:47:57.896Z,100
2017-07-30T05:48:23.383Z,110
2017-07-30T05:48:48.879Z,110
2017-07-30T05:49:14.355Z,110
2017-07-30T05:49:39.827Z,110
2017-07-30T05:50:05.304Z,100
2017-07-30T05:50:30.815Z,95
2017-07-30T05:50:56.266Z,90
2017-07-30T05:51:21.728Z,80
2017-07-30T05:51:47.195Z,75
2017-07-30T05:52:12.678Z,75
2017-07-30T05:52:38.169Z,80
2017-07-30T05:53:03.662Z,90
2017-07-30T05:53:29.123Z,90
2017-07-30T05:53:54.594Z,90
2017-07-30T05:54:20.078Z,85
2017-07-30T05:54:45.523Z,80
2017-07-30T05:55:11.016Z,80
2017-07-30T05:55:36.531Z,80
2017-07-30T05:56:02.013Z,80
2017-07-30T05:56:27.548Z,80
2017-07-30T05:56:53.040Z,80
2017-07-30T05:57:18.537Z,75
2017-07-30T05:57:44.000Z,70
2017-07-30T05:58:09.517Z,70
2017-07-30T05:58:34.996Z,70
2017-07-30T05:59:00.451Z,70
2017-07-30T05:59:25.933Z,75
2017-07-30T05:59:51.427Z,100
2017-07-30T06:00:16.918Z,125
2017-07-30T06:00:42.405Z,130
2017-07-30T06:01:07.914Z,110
2017-07-30T06:01:33.370Z,90
2017-07-30T06:01:58.836Z,75
2017-07-30T06:02:24.370Z,85
2017-07-30T06:02:49.828Z,90
2017-07-30T06:03:15.294Z,90
2017-07-30T06:03:40.746Z,95
2017-07-30T06:04:06.289Z,85
2017-07-30T06:04:31.789Z,85
2017-07-30T06:04:57.255Z,85
2017-07-30T06:05:22.737Z,80
2017-07-30T06:05:48.283Z,85
2017-07-30T06:06:13.778Z,85
2017-07-30T06:06:39.259Z,80
2017-07-30T06:07:04.768Z,85
2017-07-30T06:07:30.245Z,80
2017-07-30T06:07:55.743Z,85
2017-07-30T06:08:21.254Z,110
2017-07-30T06:08:46.726Z,110
2017-07-30T06:09:12.240Z,155
2017-07-30T06:09:37.700Z,175
2017-07-30T06:10:03.190Z,120
2017-07-30T06:10:28.635Z,120
2017-07-30T06:10:54.128Z,120
2017-07-30T06:11:19.641Z,130
2017-07-30T06:11:45.120Z,135
2017-07-30T06:12:10.677Z,135
2017-07-30T06:12:36.208Z,130
2017-07-30T06:13:01.714Z,135
2017-07-30T06:13:27.210Z,185
2017-07-30T06:13:52.715Z,135
2017-07-30T06:14:18.213Z,135
2017-07-30T06:14:43.728Z,125
2017-07-30T06:15:09.266Z,120
2017-07-30T06:15:34.722Z,120
2017-07-30T06:16:00.190Z,110
2017-07-30T06:16:25.695Z,105
2017-07-30T06:16:51.178Z,100
2017-07-30T06:17:16.658Z,135
2017-07-30T06:17:42.141Z,90
2017-07-30T06:18:07.599Z,85
2017-07-30T06:18:33.090Z,90
2017-07-30T06:18:58.540Z,95
2017-07-30T06:19:24.057Z,95
2017-07-30T06:19:49.512Z,95
2017-07-30T06:20:15.040Z,110
2017-07-30T06:20:40.557Z,110
2017-07-30T06:21:06.023Z,120
2017-07-30T06:21:31.474Z,125
2017-07-30T06:21:56.955Z,110
2017-07-30T06:22:22.442Z,105
2017-07-30T06:22:47.916Z,125
2017-07-30T06:23:13.365Z,135
2017-07-30T06:24:41.965Z,145
2017-07-30T06:25:07.427Z,120
2017-07-30T06:25:32.926Z,170
2017-07-30T06:25:58.452Z,150
2017-07-30T06:27:12.233Z,95
2017-07-30T06:27:37.694Z,100
2017-07-30T06:28:03.168Z,140
2017-07-30T06:28:28.666Z,140
2017-07-30T06:28:54.146Z,150
2017-07-30T06:29:19.630Z,155
2017-07-30T06:29:45.118Z,205
2017-07-30T06:30:10.572Z,155
2017-07-30T06:30:36.095Z,130
2017-07-30T06:31:01.559Z,100
2017-07-30T06:31:27.069Z,100
2017-07-30T06:31:52.552Z,100
2017-07-30T06:32:18.014Z,100
2017-07-30T06:32:43.458Z,160
2017-07-30T06:33:08.955Z,105
2017-07-30T06:33:34.446Z,125
2017-07-30T06:33:59.945Z,160
2017-07-30T06:34:25.427Z,150
2017-07-30T06:34:50.912Z,165
2017-07-30T06:35:16.405Z,170
2017-07-30T06:35:41.875Z,165
2017-07-30T06:36:07.335Z,170
2017-07-30T06:36:32.827Z,170
2017-07-30T06:36:58.336Z,165
2017-07-30T06:37:23.859Z,160
2017-07-30T06:37:49.314Z,160
2017-07-30T06:38:14.822Z,150
2017-07-30T06:38:40.296Z,165
2017-07-30T06:39:05.815Z,170
2017-07-30T06:39:31.297Z,175
2017-07-30T06:39:56.764Z,170
2017-07-30T06:40:22.275Z,145
2017-07-30T06:40:47.766Z,145
2017-07-30T06:41:13.257Z,110
2017-07-30T06:41:38.835Z,120
2017-07-30T06:42:04.251Z,95
2017-07-30T06:42:29.778Z,100
2017-07-30T06:42:55.259Z,115
2017-07-30T06:43:20.775Z,125
2017-07-30T06:43:46.233Z,140
2017-07-30T06:44:11.749Z,165
2017-07-30T06:44:37.254Z,170
2017-07-30T06:45:02.735Z,175
2017-07-30T06:45:28.258Z,175
2017-07-30T06:45:53.729Z,185
2017-07-30T06:46:19.344Z,185
2017-07-30T06:46:44.725Z,185
2017-07-30T06:47:10.349Z,195
2017-07-30T06:47:35.854Z,200
2017-07-30T06:48:01.377Z,205
2017-07-30T06:48:26.862Z,210
2017-07-30T06:48:52.343Z,210
2017-07-30T06:49:17.844Z,215
2017-07-30T06:49:43.335Z,220
2017-07-30T06:50:08.814Z,220
2017-07-30T06:50:42.896Z,180
2017-07-30T06:51:10.194Z,145
2017-07-30T06:52:40.671Z,160
2017-07-30T06:53:06.133Z,150
2017-07-30T06:53:31.667Z,140
2017-07-30T06:53:57.135Z,140
2017-07-30T06:54:22.597Z,135
2017-07-30T06:54:48.082Z,140
2017-07-30T06:55:13.531Z,135
2017-07-30T06:55:39.008Z,155
2017-07-30T06:56:04.511Z,150
2017-07-30T06:56:29.977Z,160
2017-07-30T06:56:55.490Z,185
2017-07-30T06:57:20.972Z,195
2017-07-30T06:57:46.452Z,210
2017-07-30T06:58:11.963Z,180
2017-07-30T06:58:37.412Z,180
2017-07-30T06:59:02.881Z,185
2017-07-30T06:59:28.364Z,175
2017-07-30T06:59:53.831Z,180
2017-07-30T07:00:19.310Z,175
2017-07-30T07:00:44.827Z,185
2017-07-30T07:01:10.364Z,195
2017-07-30T07:01:35.804Z,180
2017-07-30T07:02:01.264Z,210
2017-07-30T07:02:26.769Z,195
2017-07-30T07:02:52.257Z,170
2017-07-30T07:03:17.740Z,215
2017-07-30T07:03:43.219Z,190
2017-07-30T07:04:08.710Z,195
2017-07-30T07:04:34.201Z,225
2017-07-30T07:04:59.818Z,225
2017-07-30T07:05:25.241Z,200
2017-07-30T07:05:50.707Z,195
2017-07-30T07:06:16.188Z,180
2017-07-30T07:06:41.673Z,175
2017-07-30T07:07:07.136Z,175
2017-07-30T07:07:32.720Z,170
2017-07-30T07:07:58.208Z,165
2017-07-30T07:08:23.751Z,165
2017-07-30T07:08:49.288Z,165
2017-07-30T07:09:14.806Z,180
2017-07-30T07:09:40.333Z,170
2017-07-30T07:10:05.897Z,150
2017-07-30T07:10:31.352Z,150
2017-07-30T07:10:56.927Z,150
2017-07-30T07:11:22.496Z,145
2017-07-30T07:11:48.114Z,140
2017-07-30T07:12:13.649Z,135
2017-07-30T07:12:39.147Z,130
2017-07-30T07:13:04.651Z,130
2017-07-30T07:13:30.109Z,130
2017-07-30T07:13:55.587Z,130
2017-07-30T07:14:21.189Z,135
2017-07-30T07:14:46.688Z,140
2017-07-30T07:15:12.325Z,140
2017-07-30T07:15:37.832Z,135
2017-07-30T07:16:03.386Z,135
2017-07-30T07:16:28.875Z,155
2017-07-30T07:16:54.331Z,140
2017-07-30T07:17:19.896Z,150
2017-07-30T07:17:45.457Z,180
2017-07-30T07:18:10.988Z,170
2017-07-30T07:18:36.571Z,150
2017-07-30T07:19:02.222Z,150
2017-07-30T07:19:27.875Z,155
2017-07-30T07:19:53.360Z,175
2017-07-30T07:20:18.868Z,155
2017-07-30T07:20:44.432Z,165
2017-07-30T07:21:09.972Z,140
2017-07-30T07:21:35.403Z,135
2017-07-30T07:22:01.018Z,145
2017-07-30T07:22:26.500Z,150
2017-07-30T07:22:51.972Z,155
2017-07-30T07:23:17.452Z,130
2017-07-30T07:23:43.078Z,130
2017-07-30T07:24:08.587Z,125
2017-07-30T07:24:34.155Z,120
2017-07-30T07:24:59.711Z,115
2017-07-30T07:25:25.295Z,120
2017-07-30T07:25:50.893Z,135
2017-07-30T07:26:16.500Z,100
2017-07-30T07:26:41.945Z,100
2017-07-30T07:27:07.437Z,130
2017-07-30T07:27:33.036Z,120
2017-07-30T07:27:58.620Z,115
2017-07-30T07:28:24.264Z,105
2017-07-30T07:28:49.716Z,115
2017-07-30T07:29:15.254Z,95
2017-07-30T07:29:40.770Z,95
2017-07-30T07:30:06.340Z,85
2017-07-30T07:30:31.867Z,85
2017-07-30T07:30:57.592Z,85
2017-07-30T07:31:23.235Z,95
2017-07-30T07:31:48.681Z,95
2017-07-30T07:32:14.214Z,100
2017-07-30T07:32:39.728Z,90
2017-07-30T07:33:05.356Z,95
2017-07-30T07:33:30.889Z,115
2017-07-30T07:33:56.302Z,105
2017-07-30T07:34:21.949Z,110
2017-07-30T07:34:47.454Z,110
2017-07-30T07:35:12.964Z,135
2017-07-30T07:35:38.622Z,140
2017-07-30T07:36:04.144Z,165
2017-07-30T07:36:29.758Z,185
2017-07-30T07:36:55.306Z,185
2017-07-30T07:37:20.826Z,180
2017-07-30T07:37:46.450Z,225
2017-07-30T07:38:11.821Z,225
2017-07-30T07:38:37.312Z,205
2017-07-30T07:39:02.752Z,210
2017-07-30T07:39:28.232Z,230
2017-07-30T07:39:53.747Z,275
2017-07-30T07:40:19.191Z,285
2017-07-30T07:40:44.678Z,275
2017-07-30T07:41:10.179Z,250
2017-07-30T07:41:35.779Z,230
2017-07-30T07:42:01.219Z,210
2017-07-30T07:42:26.676Z,220
2017-07-30T07:42:52.228Z,210
2017-07-30T07:43:17.696Z,210
2017-07-30T07:43:43.162Z,195
2017-07-30T07:44:08.630Z,210
2017-07-30T07:44:34.108Z,205
2017-07-30T07:44:59.597Z,230
2017-07-30T07:45:25.073Z,240
2017-07-30T07:45:50.565Z,225
2017-07-30T07:46:16.039Z,210
2017-07-30T07:46:41.513Z,220
2017-07-30T07:47:54.786Z,170
2017-07-30T07:48:20.267Z,170
2017-07-30T07:48:45.755Z,170
2017-07-30T07:49:11.223Z,165
2017-07-30T07:49:36.690Z,160
2017-07-30T07:50:02.147Z,160
2017-07-30T07:50:27.629Z,155
2017-07-30T07:50:53.122Z,160
2017-07-30T07:51:18.559Z,175
2017-07-30T07:51:44.034Z,200
2017-07-30T07:52:09.508Z,220
2017-07-30T07:52:35.047Z,180
2017-07-30T07:53:00.551Z,150
2017-07-30T07:53:26.075Z,165
2017-07-30T07:53:51.557Z,205
2017-07-30T07:54:17.081Z,200
2017-07-30T07:54:42.630Z,205
2017-07-30T07:55:08.117Z,175
2017-07-30T07:55:33.578Z,165
2017-07-30T07:55:59.065Z,170
2017-07-30T07:56:24.530Z,195
2017-07-30T07:56:50.010Z,200
2017-07-30T07:57:15.496Z,190
2017-07-30T07:57:40.945Z,190
2017-07-30T07:58:06.500Z,185
2017-07-30T07:58:31.990Z,180
2017-07-30T07:58:57.476Z,165
2017-07-30T07:59:22.953Z,155
2017-07-30T07:59:48.460Z,160
2017-07-30T08:00:13.977Z,185
2017-07-30T08:00:39.444Z,175
2017-07-30T08:01:04.920Z,150
2017-07-30T08:01:30.378Z,130
2017-07-30T08:01:55.828Z,120
2017-07-30T08:02:21.315Z,120
2017-07-30T08:02:46.766Z,90
2017-07-30T08:03:12.264Z,75
2017-07-30T08:03:37.761Z,85
2017-07-30T08:04:03.278Z,110
2017-07-30T08:04:28.758Z,135
2017-07-30T08:04:54.262Z,135
2017-07-30T08:05:19.759Z,120
2017-07-30T08:05:45.214Z,105
2017-07-30T08:06:10.703Z,80
2017-07-30T08:06:36.215Z,85
2017-07-30T08:07:01.663Z,95
2017-07-30T08:07:27.196Z,105
2017-07-30T08:07:52.729Z,100
2017-07-30T08:08:18.175Z,100
2017-07-30T08:08:43.658Z,110
2017-07-30T08:09:09.218Z,110
2017-07-30T08:09:34.674Z,125
2017-07-30T08:10:00.192Z,130
2017-07-30T08:10:25.646Z,120
2017-07-30T08:10:51.123Z,110
2017-07-30T08:11:16.607Z,105
2017-07-30T08:11:42.109Z,120
2017-07-30T08:12:07.664Z,135
2017-07-30T08:12:33.107Z,145
2017-07-30T08:12:58.599Z,190
2017-07-30T08:13:24.142Z,145
2017-07-30T08:13:49.610Z,135
2017-07-30T08:14:15.146Z,165
2017-07-30T08:14:40.605Z,215
2017-07-30T08:15:06.081Z,290
2017-07-30T08:15:31.571Z,275
2017-07-30T08:15:57.076Z,265
2017-07-30T08:16:22.578Z,285
2017-07-30T08:16:48.135Z,260
2017-07-30T08:17:13.614Z,195
2017-07-30T08:17:39.130Z,175
2017-07-30T08:18:04.602Z,165
2017-07-30T08:18:30.094Z,155
2017-07-30T08:18:55.594Z,145
2017-07-30T08:19:21.094Z,140
2017-07-30T08:19:46.594Z,145
2017-07-30T08:20:12.081Z,155
2017-07-30T08:20:37.603Z,150
2017-07-30T08:21:03.059Z,140
2017-07-30T08:21:28.575Z,135
2017-07-30T08:21:54.053Z,140
2017-07-30T08:22:19.569Z,150
2017-07-30T08:22:45.019Z,160
2017-07-30T08:23:10.456Z,145
2017-07-30T08:23:35.920Z,135
2017-07-30T08:24:01.398Z,130
2017-07-30T08:24:26.917Z,125
2017-07-30T08:24:52.401Z,130
2017-07-30T08:25:17.875Z,125
2017-07-30T08:25:43.378Z,125
2017-07-30T08:26:08.830Z,125
2017-07-30T08:26:34.330Z,120
2017-07-30T08:26:59.816Z,105
2017-07-30T08:27:25.270Z,105
2017-07-30T08:27:50.757Z,105
2017-07-30T08:28:16.248Z,110
2017-07-30T08:28:41.749Z,120
2017-07-30T08:29:07.250Z,150
2017-07-30T08:29:32.736Z,160
2017-07-30T08:29:58.211Z,185
2017-07-30T08:30:23.704Z,215
2017-07-30T08:30:49.186Z,235
2017-07-30T08:31:14.711Z,235
2017-07-30T08:31:40.201Z,225
2017-07-30T08:32:05.684Z,220
2017-07-30T08:32:31.181Z,235
2017-07-30T08:32:56.683Z,220
2017-07-30T08:33:22.163Z,245
2017-07-30T08:33:47.671Z,225
2017-07-30T08:34:13.165Z,240
2017-07-30T08:34:38.636Z,235
2017-07-30T08:35:04.145Z,225
2017-07-30T08:35:29.616Z,235
2017-07-30T08:35:55.096Z,230
2017-07-30T08:36:20.591Z,225
2017-07-30T08:36:46.108Z,250
2017-07-30T08:37:11.566Z,250
2017-07-30T08:37:37.026Z,235
2017-07-30T08:38:02.513Z,215
2017-07-30T08:38:28.017Z,210
2017-07-30T08:38:53.482Z,230
2017-07-30T08:39:18.991Z,260
2017-07-30T08:39:44.491Z,275
2017-07-30T08:40:09.974Z,250
2017-07-30T08:40:35.494Z,230
2017-07-30T08:41:01.022Z,215
2017-07-30T08:41:26.524Z,205
2017-07-30T08:41:52.024Z,200
2017-07-30T08:42:17.519Z,200
2017-07-30T08:42:43.046Z,235
2017-07-30T08:43:08.551Z,300
2017-07-30T08:43:34.013Z,260
2017-07-30T08:43:59.493Z,235
2017-07-30T08:44:24.949Z,220
2017-07-30T08:44:50.443Z,245
2017-07-30T08:45:15.976Z,250
2017-07-30T08:45:41.440Z,235
2017-07-30T08:46:06.934Z,225
2017-07-30T08:46:32.418Z,235
2017-07-30T08:46:57.891Z,245
2017-07-30T08:47:23.445Z,250
2017-07-30T08:47:48.933Z,235
2017-07-30T08:48:14.396Z,250
2017-07-30T08:48:39.922Z,255
2017-07-30T08:49:05.383Z,215
2017-07-30T08:49:30.905Z,195
2017-07-30T08:49:56.376Z,170
2017-07-30T08:50:21.905Z,155
2017-07-30T08:50:47.393Z,135
2017-07-30T08:51:12.896Z,135
2017-07-30T08:51:38.370Z,170
2017-07-30T08:52:03.871Z,225
2017-07-30T08:52:29.367Z,260
2017-07-30T08:52:54.843Z,265
2017-07-30T08:53:20.302Z,260
2017-07-30T08:53:45.755Z,250
2017-07-30T08:54:11.234Z,240
2017-07-30T08:54:36.731Z,235
2017-07-30T08:55:02.199Z,240
2017-07-30T08:55:27.730Z,265
2017-07-30T08:55:53.208Z,300
2017-07-30T08:56:18.687Z,300
2017-07-30T08:56:44.188Z,260
2017-07-30T08:57:09.674Z,210
2017-07-30T08:57:35.141Z,150
2017-07-30T08:58:00.643Z,120
2017-07-30T08:58:26.160Z,110
2017-07-30T08:58:51.702Z,110
2017-07-30T08:59:17.166Z,150
2017-07-30T08:59:42.689Z,220
2017-07-30T09:00:08.260Z,250
2017-07-30T09:00:33.728Z,250
2017-07-30T09:00:59.239Z,250
2017-07-30T09:01:24.702Z,235
2017-07-30T09:01:50.176Z,230
2017-07-30T09:02:15.677Z,195
2017-07-30T09:02:41.141Z,150
2017-07-30T09:03:06.646Z,125
2017-07-30T09:03:32.107Z,115
2017-07-30T09:03:57.608Z,105
2017-07-30T09:04:23.106Z,115
2017-07-30T09:04:48.606Z,125
2017-07-30T09:05:14.119Z,145
2017-07-30T09:05:39.606Z,165
2017-07-30T09:06:05.087Z,150
2017-07-30T09:06:30.579Z,135
2017-07-30T09:06:56.019Z,170
2017-07-30T09:07:21.486Z,180
2017-07-30T09:07:46.965Z,180
2017-07-30T09:08:12.482Z,150
2017-07-30T09:08:37.927Z,125
2017-07-30T09:09:03.399Z,110
2017-07-30T09:09:28.871Z,105
2017-07-30T09:09:54.354Z,115
2017-07-30T09:10:19.861Z,145
2017-07-30T09:10:45.347Z,170
2017-07-30T09:11:10.883Z,170
2017-07-30T09:11:36.368Z,165
2017-07-30T09:12:01.847Z,145
2017-07-30T09:12:27.343Z,125
2017-07-30T09:12:52.874Z,110
2017-07-30T09:13:18.406Z,125
2017-07-30T09:13:43.883Z,135
2017-07-30T09:14:09.394Z,145
2017-07-30T09:14:34.900Z,155
2017-07-30T09:15:00.382Z,150
2017-07-30T09:15:25.824Z,130
2017-07-30T09:15:51.301Z,120
2017-07-30T09:16:16.767Z,135
2017-07-30T09:16:42.264Z,150
2017-07-30T09:17:07.738Z,180
2017-07-30T09:17:33.232Z,175
2017-07-30T09:17:58.718Z,145
2017-07-30T09:18:24.220Z,125
2017-07-30T09:18:49.698Z,110
2017-07-30T09:19:15.171Z,95
2017-07-30T09:19:40.694Z,95
2017-07-30T09:20:06.166Z,120
2017-07-30T09:20:31.640Z,160
2017-07-30T09:20:57.093Z,220
2017-07-30T09:21:22.593Z,225
2017-07-30T09:21:48.081Z,230
2017-07-30T09:22:13.564Z,245
2017-07-30T09:22:39.053Z,260
2017-07-30T09:23:04.570Z,240
2017-07-30T09:23:30.076Z,190
2017-07-30T09:23:55.583Z,195
2017-07-30T09:24:21.041Z,240
2017-07-30T09:24:46.561Z,265
2017-07-30T09:25:12.058Z,260
2017-07-30T09:25:37.520Z,270
2017-07-30T09:26:03.035Z,280
2017-07-30T09:26:28.553Z,280
2017-07-30T09:26:54.041Z,260
2017-07-30T09:27:19.520Z,265
2017-07-30T09:27:45.013Z,275
2017-07-30T09:28:10.499Z,285
2017-07-30T09:28:35.969Z,265
2017-07-30T09:29:01.462Z,265
2017-07-30T09:29:26.927Z,260
2017-07-30T09:29:52.430Z,265
2017-07-30T09:30:17.925Z,265
2017-07-30T09:30:43.469Z,265
2017-07-30T09:31:08.981Z,280
2017-07-30T09:31:34.437Z,285
2017-07-30T09:31:59.939Z,275
2017-07-30T09:32:25.418Z,260
2017-07-30T09:32:50.917Z,270
2017-07-30T09:33:16.393Z,245
2017-07-30T09:33:41.865Z,250
2017-07-30T09:34:07.373Z,250
2017-07-30T09:34:32.858Z,245
2017-07-30T09:34:58.320Z,235
2017-07-30T09:35:23.830Z,230
2017-07-30T09:35:49.251Z,220
2017-07-30T09:36:14.727Z,200
2017-07-30T09:36:40.216Z,185
2017-07-30T09:37:05.695Z,175
2017-07-30T09:37:31.160Z,155
2017-07-30T09:37:56.644Z,170
2017-07-30T09:38:22.131Z,160
2017-07-30T09:38:47.619Z,185
2017-07-30T09:39:13.136Z,195
2017-07-30T09:39:38.626Z,220
2017-07-30T09:40:04.127Z,250
2017-07-30T09:40:29.603Z,265
2017-07-30T09:40:55.084Z,265
2017-07-30T09:41:20.605Z,305
2017-07-30T09:41:46.103Z,270
2017-07-30T09:42:11.595Z,260
2017-07-30T09:42:37.093Z,260
2017-07-30T09:43:02.603Z,285
2017-07-30T09:43:28.059Z,285
2017-07-30T09:43:53.577Z,305
2017-07-30T09:44:19.021Z,350
2017-07-30T09:44:44.482Z,365
2017-07-30T09:45:09.963Z,380
2017-07-30T09:45:35.439Z,355
2017-07-30T09:46:00.974Z,340
2017-07-30T09:46:26.436Z,300
2017-07-30T09:46:51.942Z,275
2017-07-30T09:47:17.493Z,245
2017-07-30T09:47:42.962Z,245
2017-07-30T09:48:08.428Z,240
2017-07-30T09:48:33.962Z,240
2017-07-30T09:48:59.387Z,220
2017-07-30T09:49:24.855Z,230
2017-07-30T09:49:50.352Z,235
2017-07-30T09:50:15.866Z,225
2017-07-30T09:51:39.416Z,355
2017-07-30T09:52:04.898Z,335
2017-07-30T09:52:30.391Z,320
2017-07-30T09:52:55.916Z,300
2017-07-30T09:53:21.381Z,270
2017-07-30T09:53:47.059Z,260
2017-07-30T09:54:12.400Z,190
2017-07-30T09:54:37.831Z,145
2017-07-30T09:55:03.328Z,115
2017-07-30T09:55:28.836Z,95
2017-07-30T09:55:54.304Z,90
2017-07-30T09:56:19.780Z,80
2017-07-30T09:56:45.254Z,80
2017-07-30T09:57:10.740Z,95
2017-07-30T09:57:36.199Z,150
2017-07-30T09:58:01.689Z,175
2017-07-30T09:58:27.156Z,175
2017-07-30T09:58:52.624Z,155
2017-07-30T09:59:18.093Z,140
2017-07-30T09:59:43.570Z,125
2017-07-30T10:00:09.033Z,125
2017-07-30T10:00:34.547Z,155
2017-07-30T10:01:00.060Z,210
2017-07-30T10:01:25.560Z,235
2017-07-30T10:01:51.064Z,250
2017-07-30T10:02:16.554Z,275
2017-07-30T10:02:42.014Z,285
2017-07-30T10:03:07.441Z,295
2017-07-30T10:03:32.936Z,275
2017-07-30T10:03:58.388Z,275
2017-07-30T10:04:23.861Z,275
2017-07-30T10:04:49.387Z,275
2017-07-30T10:05:14.847Z,290
2017-07-30T10:05:40.342Z,325
2017-07-30T10:06:05.826Z,350
2017-07-30T10:06:31.337Z,350
2017-07-30T10:06:56.833Z,375
2017-07-30T10:07:22.366Z,385
2017-07-30T10:08:51.448Z,400
2017-07-30T10:09:16.908Z,385
2017-07-30T10:09:42.378Z,405
2017-07-30T10:10:07.858Z,400
2017-07-30T10:10:33.328Z,370
2017-07-30T10:10:58.837Z,325
2017-07-30T10:11:24.277Z,310
2017-07-30T10:11:49.743Z,310
2017-07-30T10:12:15.210Z,315
2017-07-30T10:12:40.683Z,315
2017-07-30T10:13:06.174Z,320
2017-07-30T10:13:31.647Z,330
2017-07-30T10:14:50.560Z,345
2017-07-30T10:15:16.016Z,385
2017-07-30T10:15:41.504Z,365
2017-07-30T10:16:06.982Z,375
2017-07-30T10:16:32.469Z,380
2017-07-30T10:16:57.945Z,380
2017-07-30T10:17:23.410Z,375
2017-07-30T10:17:48.911Z,370
2017-07-30T10:18:14.379Z,385
2017-07-30T10:18:39.866Z,375
2017-07-30T10:19:05.413Z,380
2017-07-30T10:19:30.912Z,370
2017-07-30T10:19:56.404Z,360
2017-07-30T10:20:21.889Z,370
2017-07-30T10:20:47.352Z,365
2017-07-30T10:21:12.836Z,360
2017-07-30T10:21:38.317Z,350
2017-07-30T10:22:03.813Z,355
2017-07-30T10:22:29.292Z,350
2017-07-30T10:22:54.775Z,355
2017-07-30T10:23:20.254Z,355
2017-07-30T10:23:45.713Z,345
2017-07-30T10:24:11.210Z,325
2017-07-30T10:24:36.692Z,300
2017-07-30T10:25:02.138Z,285
2017-07-30T10:25:27.617Z,275
2017-07-30T10:25:53.088Z,290
2017-07-30T10:26:18.589Z,335
2017-07-30T10:26:44.102Z,355
2017-07-30T10:27:09.604Z,365
2017-07-30T10:27:35.112Z,370
2017-07-30T10:28:00.592Z,375
2017-07-30T10:28:26.129Z,375
2017-07-30T10:28:51.578Z,375
2017-07-30T10:29:17.079Z,375
2017-07-30T10:29:42.555Z,375
2017-07-30T10:30:08.077Z,370
2017-07-30T10:30:33.578Z,365
2017-07-30T10:30:59.085Z,360
2017-07-30T10:31:24.569Z,340
2017-07-30T10:31:50.097Z,305
2017-07-30T10:32:15.607Z,275
2017-07-30T10:32:41.052Z,240
2017-07-30T10:33:06.507Z,205
2017-07-30T10:33:31.981Z,180
2017-07-30T10:33:57.476Z,185
2017-07-30T10:34:23.011Z,215
2017-07-30T10:34:48.467Z,240
2017-07-30T10:35:13.996Z,220
2017-07-30T10:35:39.515Z,200
2017-07-30T10:36:05.024Z,185
2017-07-30T10:36:30.509Z,175
2017-07-30T10:36:55.989Z,190
2017-07-30T10:37:21.483Z,210
2017-07-30T10:37:46.987Z,195
2017-07-30T10:38:12.474Z,160
2017-07-30T10:38:37.944Z,115
2017-07-30T10:39:03.410Z,85
2017-07-30T10:39:28.918Z,60
2017-07-30T10:39:54.376Z,65
2017-07-30T10:40:19.869Z,100
2017-07-30T10:40:45.379Z,145
2017-07-30T10:41:10.831Z,180
2017-07-30T10:41:36.319Z,210
2017-07-30T10:42:01.806Z,225
2017-07-30T10:42:27.287Z,230
2017-07-30T10:42:52.763Z,230
2017-07-30T10:43:18.236Z,235
2017-07-30T10:43:43.725Z,240
2017-07-30T10:44:09.225Z,225
2017-07-30T10:44:34.656Z,210
2017-07-30T10:45:00.126Z,205
2017-07-30T10:45:25.635Z,205
2017-07-30T10:45:51.075Z,205
2017-07-30T10:46:16.591Z,210
2017-07-30T10:46:42.134Z,240
2017-07-30T10:47:07.589Z,275
2017-07-30T10:47:33.079Z,295
2017-07-30T10:47:58.569Z,305
2017-07-30T10:48:24.062Z,305
2017-07-30T10:48:49.529Z,310
2017-07-30T10:49:15.009Z,315
2017-07-30T10:49:40.492Z,320
2017-07-30T10:50:06.009Z,320
2017-07-30T10:50:31.504Z,325
2017-07-30T10:50:56.990Z,325
2017-07-30T10:51:22.447Z,325
2017-07-30T10:51:47.945Z,325
2017-07-30T10:52:13.436Z,325
2017-07-30T10:52:38.889Z,330
2017-07-30T10:53:04.361Z,330
2017-07-30T10:53:29.868Z,330
2017-07-30T10:53:55.343Z,335
2017-07-30T10:54:20.779Z,330
2017-07-30T10:54:46.244Z,335
2017-07-30T10:55:11.735Z,335
2017-07-30T10:55:37.248Z,335
2017-07-30T10:56:02.727Z,340
2017-07-30T10:56:28.228Z,340
2017-07-30T10:56:53.713Z,345
2017-07-30T10:57:19.223Z,345
2017-07-30T10:57:44.772Z,350
2017-07-30T10:58:10.308Z,350
2017-07-30T10:58:35.853Z,345
2017-07-30T10:59:01.395Z,340
2017-07-30T10:59:26.925Z,340
2017-07-30T10:59:52.347Z,340
2017-07-30T11:00:17.865Z,335
2017-07-30T11:00:43.353Z,335
2017-07-30T11:01:08.850Z,335
2017-07-30T11:01:34.313Z,335
2017-07-30T11:01:59.824Z,335
2017-07-30T11:02:25.304Z,335
2017-07-30T11:02:50.792Z,330
2017-07-30T11:03:16.291Z,330
2017-07-30T11:03:41.749Z,330
2017-07-30T11:04:07.242Z,330
2017-07-30T11:04:32.747Z,330
2017-07-30T11:04:58.226Z,330
2017-07-30T11:05:23.747Z,330
2017-07-30T11:05:49.277Z,330
2017-07-30T11:06:14.763Z,330
2017-07-30T11:06:40.259Z,335
2017-07-30T11:07:05.719Z,335
2017-07-30T11:07:31.165Z,340
2017-07-30T11:07:56.648Z,335
2017-07-30T11:09:25.239Z,330
2017-07-30T11:09:50.723Z,330
2017-07-30T11:10:16.193Z,330
2017-07-30T11:10:41.690Z,330
2017-07-30T11:11:07.161Z,325
2017-07-30T11:11:32.658Z,325
2017-07-30T11:11:58.145Z,325
2017-07-30T11:12:23.577Z,325
2017-07-30T11:12:49.010Z,325
2017-07-30T11:13:14.498Z,325
2017-07-30T11:13:39.930Z,320
2017-07-30T11:14:05.403Z,310
2017-07-30T11:14:30.846Z,305
2017-07-30T11:14:56.317Z,295
2017-07-30T11:15:21.758Z,295
2017-07-30T11:15:47.225Z,300
2017-07-30T11:16:12.711Z,305
2017-07-30T11:16:38.192Z,310
2017-07-30T11:17:03.651Z,300
2017-07-30T11:17:29.108Z,300
2017-07-30T11:17:54.548Z,295
2017-07-30T11:18:20.006Z,285
2017-07-30T11:18:45.444Z,280
2017-07-30T11:19:10.895Z,275
2017-07-30T11:19:36.366Z,280
2017-07-30T11:20:01.850Z,295
2017-07-30T11:20:27.298Z,300
2017-07-30T11:20:52.809Z,290
2017-07-30T11:21:18.273Z,275
2017-07-30T11:21:43.773Z,250
2017-07-30T11:22:09.214Z,215
2017-07-30T11:22:34.671Z,210
2017-07-30T11:23:00.140Z,215
2017-07-30T11:23:25.598Z,225
2017-07-30T11:23:51.062Z,245
2017-07-30T11:24:16.556Z,270
2017-07-30T11:24:41.960Z,290
2017-07-30T11:25:07.442Z,305
2017-07-30T11:25:32.899Z,310
2017-07-30T11:25:58.377Z,295
2017-07-30T11:26:23.844Z,290
2017-07-30T11:26:49.279Z,295
2017-07-30T11:27:14.742Z,290
2017-07-30T11:27:40.199Z,275
2017-07-30T11:28:05.684Z,275
2017-07-30T11:28:31.158Z,295
2017-07-30T11:28:56.619Z,305
2017-07-30T11:29:22.049Z,305
2017-07-30T11:29:47.520Z,300
2017-07-30T11:30:13.005Z,315
2017-07-30T11:30:38.454Z,320
2017-07-30T11:31:03.910Z,325
2017-07-30T11:31:29.412Z,325
2017-07-30T11:31:54.879Z,320
2017-07-30T11:32:20.339Z,320
2017-07-30T11:32:45.830Z,315